createdAt,value
2018-05-23T00:01:31.653Z,14.09
2018-05-23T00:04:00.111Z,14.10
2018-05-23T00:06:28.519Z,14.11
2018-05-23T00:08:57.723Z,14.07
2018-05-23T00:11:26.902Z,14.04
2018-05-23T00:13:55.346Z,14.01
2018-05-23T00:16:23.765Z,13.88
2018-05-23T00:18:52.236Z,13.84
2018-05-23T00:21:20.661Z,13.84
2018-05-23T00:23:49.887Z,13.98
2018-05-23T00:26:18.296Z,13.96
2018-05-23T00:28:46.768Z,13.99
2018-05-23T00:31:15.186Z,14.03
2018-05-23T00:33:43.614Z,13.90
2018-05-23T00:36:12.069Z,13.79
2018-05-23T00:38:40.502Z,13.80
2018-05-23T00:41:08.941Z,13.88
2018-05-23T00:43:38.132Z,13.91
2018-05-23T00:46:06.594Z,13.89
2018-05-23T00:48:35.037Z,13.96
2018-05-23T00:51:03.489Z,13.97
2018-05-23T00:53:31.900Z,13.93
2018-05-23T00:56:00.353Z,13.96
2018-05-23T00:58:28.767Z,14.04
2018-05-23T01:00:57.971Z,14.03
2018-05-23T01:03:26.388Z,14.03
2018-05-23T01:05:54.831Z,14.00
2018-05-23T01:08:24.014Z,14.03
2018-05-23T01:10:52.466Z,13.97
2018-05-23T01:13:20.880Z,13.88
2018-05-23T01:15:49.339Z,13.91
2018-05-23T01:18:17.751Z,13.87
2018-05-23T01:20:46.194Z,13.75
2018-05-23T01:23:14.605Z,13.71
2018-05-23T01:25:43.046Z,13.70
2018-05-23T01:28:11.468Z,13.65
2018-05-23T01:30:39.923Z,13.77
2018-05-23T01:33:08.329Z,13.81
2018-05-23T01:35:36.780Z,13.86
2018-05-23T01:38:05.215Z,13.79
2018-05-23T01:40:33.677Z,13.75
2018-05-23T01:43:02.100Z,13.76
2018-05-23T01:45:31.329Z,13.78
2018-05-23T01:47:59.730Z,13.83
2018-05-23T01:50:28.174Z,13.83
2018-05-23T01:52:57.408Z,13.91
2018-05-23T01:55:26.591Z,13.89
2018-05-23T01:57:55.021Z,13.92
2018-05-23T02:00:23.464Z,13.91
2018-05-23T02:02:51.887Z,13.84
2018-05-23T02:05:20.327Z,13.80
2018-05-23T02:07:49.596Z,13.74
2018-05-23T02:10:18.052Z,13.65
2018-05-23T02:12:46.460Z,13.62
2018-05-23T02:15:14.904Z,13.65
2018-05-23T02:17:43.307Z,13.68
2018-05-23T02:20:11.770Z,13.84
2018-05-23T02:22:40.194Z,14.02
2018-05-23T02:25:08.635Z,13.91
2018-05-23T02:27:37.042Z,13.80
2018-05-23T02:30:05.516Z,13.78
2018-05-23T02:32:33.943Z,13.67
2018-05-23T02:35:02.363Z,13.66
2018-05-23T02:37:30.848Z,13.63
2018-05-23T02:39:59.272Z,13.70
2018-05-23T02:42:27.727Z,13.66
2018-05-23T02:44:56.141Z,13.68
2018-05-23T02:47:24.633Z,13.77
2018-05-23T02:49:53.074Z,13.70
2018-05-23T02:52:21.547Z,13.64
2018-05-23T02:54:50.740Z,13.58
2018-05-23T02:57:19.953Z,13.63
2018-05-23T02:59:49.139Z,13.63
2018-05-23T03:02:17.620Z,13.68
2018-05-23T03:04:46.046Z,13.74
2018-05-23T03:07:14.479Z,13.78
2018-05-23T03:09:42.905Z,13.75
2018-05-23T03:12:11.356Z,13.69
2018-05-23T03:14:39.759Z,13.73
2018-05-23T03:17:08.961Z,13.73
2018-05-23T03:19:38.134Z,13.78
2018-05-23T03:22:06.657Z,13.79
2018-05-23T03:24:35.020Z,13.77
2018-05-23T03:27:03.475Z,13.80
2018-05-23T03:29:31.879Z,13.80
2018-05-23T03:32:00.328Z,13.78
2018-05-23T03:34:28.754Z,13.96
2018-05-23T03:36:57.972Z,13.83
2018-05-23T03:39:27.160Z,13.74
2018-05-23T03:41:55.627Z,13.74
2018-05-23T03:44:24.076Z,13.73
2018-05-23T03:46:52.527Z,13.66
2018-05-23T03:49:21.708Z,13.67
2018-05-23T03:51:50.149Z,13.68
2018-05-23T03:54:18.573Z,13.70
2018-05-23T03:56:47.039Z,13.75
2018-05-23T03:59:15.450Z,13.64
2018-05-23T04:02:01.501Z,13.62
2018-05-23T04:04:47.871Z,13.61
2018-05-23T04:07:44.625Z,13.56
2018-05-23T04:10:13.112Z,13.62
2018-05-23T04:12:41.565Z,13.60
2018-05-23T04:15:09.991Z,13.58
2018-05-23T04:17:38.434Z,13.67
2018-05-23T04:20:06.856Z,13.72
2018-05-23T04:22:35.300Z,13.78
2018-05-23T04:25:03.748Z,13.81
2018-05-23T04:27:32.256Z,13.74
2018-05-23T04:30:00.663Z,13.71
2018-05-23T04:32:29.123Z,13.75
2018-05-23T04:34:58.282Z,13.81
2018-05-23T04:37:26.678Z,13.78
2018-05-23T04:39:55.128Z,13.73
2018-05-23T04:42:23.603Z,13.79
2018-05-23T04:44:52.039Z,13.84
2018-05-23T04:47:20.470Z,13.87
2018-05-23T04:49:48.905Z,13.94
2018-05-23T04:52:17.304Z,13.90
2018-05-23T04:54:45.726Z,13.91
2018-05-23T04:57:14.186Z,13.89
2018-05-23T04:59:42.578Z,13.94
2018-05-23T05:02:10.979Z,13.94
2018-05-23T05:04:39.424Z,14.01
2018-05-23T05:07:07.831Z,13.94
2018-05-23T05:09:36.264Z,13.89
2018-05-23T05:12:04.665Z,13.91
2018-05-23T05:14:33.102Z,13.98
2018-05-23T05:17:01.495Z,14.00
2018-05-23T05:19:29.923Z,14.04
2018-05-23T05:21:58.330Z,14.00
2018-05-23T05:24:27.520Z,14.11
2018-05-23T05:26:56.695Z,14.16
2018-05-23T05:29:25.128Z,14.41
2018-05-23T05:31:53.622Z,14.56
2018-05-23T05:34:22.008Z,14.71
2018-05-23T05:36:50.402Z,14.68
2018-05-23T05:39:18.839Z,14.59
2018-05-23T05:41:48.011Z,14.38
2018-05-23T05:44:16.457Z,14.22
2018-05-23T05:46:44.873Z,14.47
2018-05-23T05:49:13.308Z,14.29
2018-05-23T05:51:42.484Z,13.99
2018-05-23T05:54:10.917Z,14.12
2018-05-23T05:56:39.347Z,14.27
2018-05-23T05:59:07.780Z,14.45
2018-05-23T06:01:36.183Z,14.23
2018-05-23T06:04:04.639Z,14.16
2018-05-23T06:06:33.054Z,14.16
2018-05-23T06:09:01.490Z,14.22
2018-05-23T06:11:30.672Z,14.29
2018-05-23T06:13:59.092Z,14.35
2018-05-23T06:16:27.491Z,14.41
2018-05-23T06:18:56.319Z,14.52
2018-05-23T06:21:24.728Z,14.59
2018-05-23T06:23:54.599Z,14.65
2018-05-23T06:26:22.973Z,14.67
2018-05-23T06:28:51.403Z,14.75
2018-05-23T06:31:19.806Z,14.78
2018-05-23T06:33:49.012Z,14.78
2018-05-23T06:36:18.190Z,14.77
2018-05-23T06:38:46.622Z,14.77
2018-05-23T06:41:15.018Z,14.77
2018-05-23T06:43:43.614Z,14.80
2018-05-23T06:46:11.981Z,14.79
2018-05-23T06:48:40.314Z,14.82
2018-05-23T06:51:09.521Z,14.92
2018-05-23T06:53:37.914Z,14.85
2018-05-23T06:56:07.092Z,14.93
2018-05-23T06:58:35.498Z,14.88
2018-05-23T07:01:04.698Z,15.07
2018-05-23T07:03:33.860Z,14.98
2018-05-23T07:06:02.306Z,14.94
2018-05-23T07:08:30.700Z,15.15
2018-05-23T07:10:59.140Z,15.06
2018-05-23T07:13:27.525Z,15.03
2018-05-23T07:15:55.946Z,14.87
2018-05-23T07:18:24.352Z,14.73
2018-05-23T07:20:52.791Z,14.80
2018-05-23T07:23:21.966Z,14.93
2018-05-23T07:25:51.244Z,14.99
2018-05-23T07:28:19.640Z,15.01
2018-05-23T07:30:48.088Z,15.10
2018-05-23T07:33:16.520Z,14.92
2018-05-23T07:35:45.756Z,14.91
2018-05-23T07:38:14.207Z,14.96
2018-05-23T07:40:42.653Z,15.13
2018-05-23T07:43:11.071Z,15.33
2018-05-23T07:45:39.520Z,15.29
2018-05-23T07:48:07.940Z,15.35
2018-05-23T07:50:36.396Z,15.35
2018-05-23T07:53:04.807Z,15.29
2018-05-23T07:55:33.263Z,15.21
2018-05-23T07:58:01.679Z,15.34
2018-05-23T08:00:30.150Z,15.27
2018-05-23T08:02:59.461Z,15.36
2018-05-23T08:05:27.888Z,15.60
2018-05-23T08:07:57.094Z,15.38
2018-05-23T08:10:25.559Z,15.52
2018-05-23T08:12:54.749Z,15.44
2018-05-23T08:15:23.192Z,15.54
2018-05-23T08:17:51.600Z,15.63
2018-05-23T08:20:20.053Z,15.67
2018-05-23T08:22:48.454Z,15.72
2018-05-23T08:25:16.886Z,15.89
2018-05-23T08:27:46.057Z,16.03
2018-05-23T08:30:14.497Z,15.88
2018-05-23T08:32:42.906Z,15.70
2018-05-23T08:35:11.300Z,15.64
2018-05-23T08:37:39.726Z,15.71
2018-05-23T08:40:08.903Z,15.77
2018-05-23T08:42:37.338Z,16.04
2018-05-23T08:45:05.753Z,16.13
2018-05-23T08:47:34.256Z,15.92
2018-05-23T08:50:02.663Z,16.19
2018-05-23T08:52:31.866Z,16.20
2018-05-23T08:55:01.064Z,16.29
2018-05-23T08:57:30.318Z,16.21
2018-05-23T08:59:58.722Z,16.24
2018-05-23T09:02:27.207Z,16.07
2018-05-23T09:04:55.643Z,16.05
2018-05-23T09:07:24.162Z,16.17
2018-05-23T09:09:52.567Z,16.21
2018-05-23T09:12:21.026Z,16.41
2018-05-23T09:14:49.411Z,16.34
2018-05-23T09:17:17.881Z,16.20
2018-05-23T09:19:46.279Z,16.17
2018-05-23T09:22:14.735Z,16.43
2018-05-23T09:24:43.139Z,16.59
2018-05-23T09:27:11.576Z,16.38
2018-05-23T09:29:40.744Z,16.47
2018-05-23T09:32:09.252Z,16.74
2018-05-23T09:34:37.590Z,16.70
2018-05-23T09:37:06.023Z,16.90
2018-05-23T09:39:34.435Z,17.00
2018-05-23T09:42:02.873Z,16.93
2018-05-23T09:44:32.084Z,16.80
2018-05-23T09:47:00.511Z,17.00
2018-05-23T09:49:28.919Z,17.11
2018-05-23T09:51:57.349Z,17.04
2018-05-23T09:54:25.739Z,17.06
2018-05-23T09:56:54.183Z,17.18
2018-05-23T09:59:22.608Z,17.49
2018-05-23T10:01:51.799Z,17.47
2018-05-23T10:04:20.214Z,17.56
2018-05-23T10:06:48.629Z,17.48
2018-05-23T10:09:17.044Z,17.51
2018-05-23T10:11:45.480Z,17.63
2018-05-23T10:14:13.881Z,17.37
2018-05-23T10:16:43.077Z,17.26
2018-05-23T10:19:11.484Z,17.52
2018-05-23T10:21:39.927Z,17.28
2018-05-23T10:24:08.323Z,17.41
2018-05-23T10:26:36.758Z,17.61
2018-05-23T10:29:05.161Z,17.84
2018-05-23T10:31:34.347Z,17.75
2018-05-23T10:34:03.549Z,17.88
2018-05-23T10:36:31.948Z,18.15
2018-05-23T10:39:01.184Z,18.23
2018-05-23T10:41:29.556Z,17.97
2018-05-23T10:43:57.984Z,18.06
2018-05-23T10:46:26.388Z,18.24
2018-05-23T10:48:54.823Z,18.44
2018-05-23T10:51:23.235Z,18.52
2018-05-23T10:53:51.671Z,18.53
2018-05-23T10:56:20.066Z,18.53
2018-05-23T10:58:48.498Z,18.57
2018-05-23T11:01:16.895Z,18.34
2018-05-23T11:03:46.093Z,18.35
2018-05-23T11:06:15.288Z,18.53
2018-05-23T11:08:44.497Z,18.72
2018-05-23T11:11:13.664Z,18.76
2018-05-23T11:13:42.107Z,18.66
2018-05-23T11:16:10.515Z,18.85
2018-05-23T11:18:39.718Z,18.97
2018-05-23T11:21:08.116Z,19.08
2018-05-23T11:23:36.560Z,19.22
2018-05-23T11:26:04.959Z,19.25
2018-05-23T11:28:33.404Z,19.56
2018-05-23T11:31:02.576Z,19.59
2018-05-23T11:33:31.015Z,19.63
2018-05-23T11:35:59.411Z,19.59
2018-05-23T11:38:28.653Z,19.46
2018-05-23T11:40:57.073Z,19.48
2018-05-23T11:43:26.286Z,19.29
2018-05-23T11:45:54.704Z,19.45
2018-05-23T11:48:23.150Z,19.44
2018-05-23T11:50:51.571Z,19.26
2018-05-23T11:53:20.004Z,19.60
2018-05-23T11:55:49.176Z,19.86
2018-05-23T11:58:17.618Z,19.80
2018-05-23T12:00:46.060Z,19.92
2018-05-23T12:03:14.589Z,20.06
2018-05-23T12:05:43.013Z,20.01
2018-05-23T12:08:11.485Z,20.11
2018-05-23T12:10:40.085Z,20.33
2018-05-23T12:13:08.401Z,20.39
2018-05-23T12:15:37.599Z,20.61
2018-05-23T12:18:06.830Z,20.88
2018-05-23T12:20:35.271Z,20.89
2018-05-23T12:23:03.722Z,20.97
2018-05-23T12:25:32.141Z,21.05
2018-05-23T12:28:00.605Z,21.28
2018-05-23T12:30:29.018Z,21.27
2018-05-23T12:32:58.240Z,21.21
2018-05-23T12:35:26.669Z,21.37
2018-05-23T12:37:55.127Z,21.22
2018-05-23T12:40:23.573Z,21.19
2018-05-23T12:42:51.978Z,21.26
2018-05-23T12:45:20.431Z,21.32
2018-05-23T12:47:48.862Z,21.24
2018-05-23T12:50:17.313Z,21.37
2018-05-23T12:52:46.495Z,21.52
2018-05-23T12:55:14.938Z,21.60
2018-05-23T12:57:43.343Z,21.64
2018-05-23T13:00:11.842Z,21.42
2018-05-23T13:02:40.322Z,21.41
2018-05-23T13:05:08.761Z,21.43
2018-05-23T13:07:37.216Z,21.51
2018-05-23T13:10:05.691Z,21.70
2018-05-23T13:12:34.348Z,21.59
2018-05-23T13:15:02.684Z,21.92
2018-05-23T13:17:31.910Z,22.02
2018-05-23T13:20:00.354Z,22.21
2018-05-23T13:22:28.871Z,22.29
2018-05-23T13:24:57.449Z,22.35
2018-05-23T13:27:26.664Z,22.26
2018-05-23T13:29:55.103Z,22.41
2018-05-23T13:32:23.549Z,22.39
2018-05-23T13:34:52.020Z,22.29
2018-05-23T13:37:20.449Z,22.37
2018-05-23T13:39:48.927Z,22.07
2018-05-23T13:42:17.336Z,22.10
2018-05-23T13:44:45.804Z,22.20
2018-05-23T13:47:14.228Z,22.25
2018-05-23T13:49:43.436Z,21.99
2018-05-23T13:52:11.863Z,22.05
2018-05-23T13:54:40.299Z,21.96
2018-05-23T13:57:09.483Z,21.54
2018-05-23T13:59:37.920Z,21.23
2018-05-23T14:02:06.335Z,21.16
2018-05-23T14:04:34.814Z,21.29
2018-05-23T14:07:03.219Z,21.43
2018-05-23T14:09:31.684Z,21.58
2018-05-23T14:12:00.101Z,21.72
2018-05-23T14:14:29.314Z,21.92
2018-05-23T14:16:58.496Z,22.05
2018-05-23T14:19:26.941Z,22.16
2018-05-23T14:21:55.373Z,22.37
2018-05-23T14:24:24.601Z,22.58
2018-05-23T14:26:53.007Z,22.73
2018-05-23T14:29:21.468Z,22.94
2018-05-23T14:31:49.881Z,23.19
2018-05-23T14:34:18.325Z,22.98
2018-05-23T14:36:46.750Z,22.90
2018-05-23T14:39:15.172Z,22.61
2018-05-23T14:41:43.654Z,22.42
2018-05-23T14:44:12.062Z,21.97
2018-05-23T14:46:40.542Z,21.66
2018-05-23T14:49:08.976Z,21.56
2018-05-23T14:51:37.421Z,21.59
2018-05-23T14:54:05.835Z,21.45
2018-05-23T14:56:34.281Z,21.22
2018-05-23T14:59:03.481Z,21.15
2018-05-23T15:01:31.944Z,21.20
2018-05-23T15:04:01.139Z,21.17
2018-05-23T15:06:29.601Z,21.30
2018-05-23T15:08:58.009Z,21.50
2018-05-23T15:11:26.453Z,21.60
2018-05-23T15:13:54.862Z,21.79
2018-05-23T15:16:23.292Z,21.90
2018-05-23T15:18:52.457Z,22.02
2018-05-23T15:21:20.885Z,22.14
2018-05-23T15:23:49.274Z,22.24
2018-05-23T15:26:17.738Z,22.24
2018-05-23T15:28:46.909Z,22.52
2018-05-23T15:31:15.376Z,22.71
2018-05-23T15:33:43.804Z,22.70
2018-05-23T15:36:13.012Z,22.74
2018-05-23T15:38:42.177Z,22.60
2018-05-23T15:41:10.606Z,22.53
2018-05-23T15:43:39.763Z,22.55
2018-05-23T15:46:08.195Z,22.61
2018-05-23T15:48:36.591Z,22.63
2018-05-23T15:51:05.045Z,22.26
2018-05-23T15:53:33.435Z,22.35
2018-05-23T15:56:02.644Z,22.33
2018-05-23T15:58:31.811Z,22.12
2018-05-23T16:01:00.255Z,22.19
2018-05-23T16:03:28.655Z,22.04
2018-05-23T16:05:57.099Z,22.09
2018-05-23T16:08:26.345Z,22.06
2018-05-23T16:10:54.781Z,21.98
2018-05-23T16:13:23.968Z,21.81
2018-05-23T16:15:53.177Z,21.53
2018-05-23T16:18:22.363Z,21.50
2018-05-23T16:20:51.583Z,21.60
2018-05-23T16:23:20.771Z,21.41
2018-05-23T16:25:49.221Z,21.35
2018-05-23T16:28:17.641Z,21.25
2018-05-23T16:30:46.088Z,21.35
2018-05-23T16:33:14.511Z,21.44
2018-05-23T16:35:42.956Z,21.31
2018-05-23T16:38:11.368Z,21.38
2018-05-23T16:40:39.786Z,21.25
2018-05-23T16:43:08.237Z,21.49
2018-05-23T16:45:36.648Z,21.43
2018-05-23T16:48:05.861Z,21.50
2018-05-23T16:50:34.281Z,21.43
2018-05-23T16:53:02.733Z,21.35
2018-05-23T16:55:31.162Z,21.14
2018-05-23T16:57:59.626Z,21.13
2018-05-23T17:00:28.045Z,21.12
2018-05-23T17:02:56.504Z,21.10
2018-05-23T17:05:24.915Z,20.81
2018-05-23T17:07:53.388Z,20.80
2018-05-23T17:10:21.834Z,20.62
2018-05-23T17:12:50.297Z,20.69
2018-05-23T17:15:18.724Z,20.64
2018-05-23T17:17:47.169Z,20.63
2018-05-23T17:20:15.587Z,20.56
2018-05-23T17:22:44.049Z,20.59
2018-05-23T17:25:12.461Z,20.71
2018-05-23T17:27:40.912Z,20.73
2018-05-23T17:30:09.365Z,20.65
2018-05-23T17:32:37.832Z,20.71
2018-05-23T17:35:06.244Z,20.62
2018-05-23T17:37:34.714Z,20.54
2018-05-23T17:40:03.127Z,20.45
2018-05-23T17:42:31.670Z,20.44
2018-05-23T17:45:00.101Z,20.36
2018-05-23T17:47:28.570Z,20.25
2018-05-23T17:49:57.746Z,20.22
2018-05-23T17:52:26.185Z,20.17
2018-05-23T17:54:54.603Z,20.07
2018-05-23T17:57:23.144Z,20.09
2018-05-23T17:59:51.593Z,20.08
2018-05-23T18:02:20.051Z,20.14
2018-05-23T18:04:48.486Z,20.17
2018-05-23T18:07:16.952Z,20.14
2018-05-23T18:09:45.391Z,20.06
2018-05-23T18:12:13.814Z,19.94
2018-05-23T18:14:42.255Z,19.94
2018-05-23T18:17:10.688Z,19.95
2018-05-23T18:19:39.130Z,19.96
2018-05-23T18:22:07.556Z,19.96
2018-05-23T18:24:36.006Z,19.94
2018-05-23T18:27:04.458Z,19.90
2018-05-23T18:29:32.967Z,19.89
2018-05-23T18:32:02.115Z,19.92
2018-05-23T18:34:30.565Z,19.91
2018-05-23T18:36:58.981Z,19.85
2018-05-23T18:39:27.420Z,19.84
2018-05-23T18:41:55.840Z,19.80
2018-05-23T18:44:24.285Z,19.62
2018-05-23T18:46:52.721Z,19.32
2018-05-23T18:49:21.182Z,19.15
2018-05-23T18:51:49.608Z,18.93
2018-05-23T18:54:18.807Z,18.76
2018-05-23T18:56:47.237Z,18.73
2018-05-23T18:59:16.459Z,18.76
2018-05-23T19:01:44.870Z,18.75
2018-05-23T19:04:14.098Z,18.63
2018-05-23T19:06:42.523Z,18.63
2018-05-23T19:09:10.978Z,18.65
2018-05-23T19:11:39.409Z,18.57
2018-05-23T19:14:07.855Z,18.51
2018-05-23T19:16:36.308Z,18.60
2018-05-23T19:19:04.769Z,18.70
2018-05-23T19:21:33.187Z,18.44
2018-05-23T19:24:01.632Z,18.43
2018-05-23T19:26:30.056Z,18.45
2018-05-23T19:28:58.499Z,18.44
2018-05-23T19:31:27.699Z,18.41
2018-05-23T19:33:56.144Z,18.38
2018-05-23T19:36:24.547Z,18.17
2018-05-23T19:38:52.984Z,18.22
2018-05-23T19:41:22.226Z,18.15
2018-05-23T19:43:50.656Z,18.06
2018-05-23T19:46:19.065Z,18.01
2018-05-23T19:48:47.513Z,18.05
2018-05-23T19:51:15.929Z,17.98
2018-05-23T19:53:44.362Z,17.91
2018-05-23T19:56:12.805Z,18.00
2018-05-23T19:58:41.223Z,17.87
2018-05-23T20:01:09.661Z,17.73
2018-05-23T20:03:38.846Z,17.62
2018-05-23T20:06:08.065Z,17.48
2018-05-23T20:08:37.262Z,17.42
2018-05-23T20:11:06.477Z,17.39
2018-05-23T20:13:34.893Z,17.32
2018-05-23T20:16:03.342Z,17.21
2018-05-23T20:18:31.770Z,17.12
2018-05-23T20:21:00.209Z,17.04
2018-05-23T20:23:29.375Z,17.03
2018-05-23T20:25:57.808Z,16.98
2018-05-23T20:28:26.233Z,16.98
2018-05-23T20:30:54.700Z,16.68
2018-05-23T20:33:23.113Z,16.71
2018-05-23T20:35:51.549Z,16.64
2018-05-23T20:38:19.958Z,16.58
2018-05-23T20:40:48.405Z,16.49
2018-05-23T20:43:16.816Z,16.46
2018-05-23T20:45:45.264Z,16.41
2018-05-23T20:48:14.446Z,16.42
2018-05-23T20:50:42.885Z,16.42
2018-05-23T20:53:11.299Z,16.40
2018-05-23T20:55:39.741Z,16.39
2018-05-23T20:58:08.143Z,16.35
2018-05-23T21:00:37.355Z,16.23
2018-05-23T21:03:05.806Z,16.17
2018-05-23T21:05:34.320Z,16.07
2018-05-23T21:08:02.707Z,16.05
2018-05-23T21:10:31.149Z,15.87
2018-05-23T21:13:00.338Z,15.75
2018-05-23T21:15:29.574Z,15.54
2018-05-23T21:17:57.985Z,15.56
2018-05-23T21:20:26.463Z,15.52
2018-05-23T21:22:54.885Z,15.57
2018-05-23T21:25:23.337Z,15.55
2018-05-23T21:27:51.831Z,15.60
2018-05-23T21:30:20.986Z,15.61
2018-05-23T21:32:49.404Z,15.54
2018-05-23T21:35:17.859Z,15.36
2018-05-23T21:37:46.299Z,15.24
2018-05-23T21:40:14.738Z,15.25
2018-05-23T21:42:43.916Z,15.24
2018-05-23T21:45:13.129Z,15.25
2018-05-23T21:47:41.544Z,15.19
2018-05-23T21:50:09.997Z,15.14
2018-05-23T21:52:38.407Z,15.11
2018-05-23T21:55:06.815Z,15.10
2018-05-23T21:57:35.347Z,15.09
2018-05-23T22:00:03.763Z,15.04
2018-05-23T22:02:32.229Z,14.98
2018-05-23T22:05:00.643Z,14.92
2018-05-23T22:07:29.123Z,14.84
2018-05-23T22:09:57.538Z,14.80
2018-05-23T22:12:25.999Z,14.77
2018-05-23T22:14:54.438Z,14.78
2018-05-23T22:17:22.924Z,14.74
2018-05-23T22:19:51.327Z,14.75
2018-05-23T22:22:19.778Z,14.74
2018-05-23T22:24:48.978Z,14.70
2018-05-23T22:27:18.195Z,14.60
2018-05-23T22:29:46.606Z,14.59
2018-05-23T22:32:15.060Z,14.56
2018-05-23T22:34:43.472Z,14.45
2018-05-23T22:37:11.925Z,14.44
2018-05-23T22:39:41.111Z,14.49
2018-05-23T22:42:09.566Z,14.35
2018-05-23T22:44:37.982Z,14.30
2018-05-23T22:47:06.425Z,14.18
2018-05-23T22:49:34.831Z,14.17
2018-05-23T22:52:03.272Z,14.18
2018-05-23T22:54:31.678Z,14.22
2018-05-23T22:57:00.121Z,14.26
2018-05-23T22:59:29.297Z,14.20
2018-05-23T23:01:57.740Z,14.04
2018-05-23T23:04:26.159Z,13.98
2018-05-23T23:06:54.622Z,13.97
2018-05-23T23:09:23.041Z,14.19
2018-05-23T23:11:52.257Z,14.13
2018-05-23T23:14:20.681Z,14.07
2018-05-23T23:16:49.117Z,14.05
2018-05-23T23:19:18.293Z,14.02
2018-05-23T23:21:46.727Z,14.05
2018-05-23T23:24:15.152Z,14.00
2018-05-23T23:26:43.608Z,13.98
2018-05-23T23:29:12.784Z,13.96
2018-05-23T23:31:42.021Z,13.92
2018-05-23T23:34:10.429Z,13.90
2018-05-23T23:36:38.878Z,13.90
2018-05-23T23:39:07.315Z,13.88
2018-05-23T23:41:35.774Z,13.84
2018-05-23T23:44:04.195Z,13.83
2018-05-23T23:46:33.431Z,13.79
2018-05-23T23:49:01.858Z,13.70
2018-05-23T23:51:30.304Z,13.68
2018-05-23T23:53:58.712Z,13.74
2018-05-23T23:56:27.174Z,13.71
2018-05-23T23:58:55.602Z,13.75
